createdAt,value
2019-03-15T00:01:08.547Z,1.80
2019-03-15T00:03:36.240Z,1.43
2019-03-15T00:06:03.901Z,1.30
2019-03-15T00:08:31.690Z,1.50
2019-03-15T00:10:59.420Z,1.23
2019-03-15T00:13:27.098Z,1.00
2019-03-15T00:15:54.799Z,1.20
2019-03-15T00:18:22.660Z,1.10
2019-03-15T00:20:50.311Z,1.03
2019-03-15T00:23:17.951Z,1.30
2019-03-15T00:25:45.595Z,1.00
2019-03-15T00:28:13.234Z,1.13
2019-03-15T00:30:40.897Z,1.07
2019-03-15T00:33:08.553Z,1.00
2019-03-15T00:35:36.202Z,1.20
2019-03-15T00:38:03.841Z,1.17
2019-03-15T00:40:31.487Z,1.27
2019-03-15T00:42:59.130Z,1.33
2019-03-15T00:45:26.782Z,1.23
2019-03-15T00:47:54.415Z,1.80
2019-03-15T00:50:22.067Z,0.97
2019-03-15T00:52:49.709Z,0.93
2019-03-15T00:55:17.373Z,0.90
2019-03-15T00:57:45.000Z,1.10
2019-03-15T01:00:12.650Z,1.00
2019-03-15T01:02:40.296Z,1.10
2019-03-15T01:05:07.949Z,1.37
2019-03-15T01:07:35.584Z,1.50
2019-03-15T01:10:03.329Z,1.43
2019-03-15T01:12:30.972Z,1.90
2019-03-15T01:14:58.627Z,1.23
2019-03-15T01:17:26.635Z,1.63
2019-03-15T01:19:54.339Z,1.07
2019-03-15T01:22:21.978Z,1.67
2019-03-15T01:24:49.627Z,1.40
2019-03-15T01:27:17.268Z,1.30
2019-03-15T01:29:44.955Z,1.50
2019-03-15T01:32:12.595Z,1.10
2019-03-15T01:34:40.245Z,0.90
2019-03-15T01:37:07.888Z,1.33
2019-03-15T01:39:35.616Z,1.23
2019-03-15T01:42:03.279Z,1.47
2019-03-15T01:44:30.941Z,1.50
2019-03-15T01:46:59.320Z,1.10
2019-03-15T01:49:27.226Z,1.20
2019-03-15T01:51:54.870Z,1.70
2019-03-15T01:54:22.523Z,1.07
2019-03-15T01:56:50.162Z,1.47
2019-03-15T01:59:17.807Z,1.03
2019-03-15T02:01:45.463Z,1.37
2019-03-15T02:04:13.108Z,1.30
2019-03-15T02:06:40.762Z,1.20
2019-03-15T02:09:09.450Z,1.40
2019-03-15T02:11:37.343Z,1.30
2019-03-15T02:14:04.995Z,1.17
2019-03-15T02:16:32.635Z,1.30
2019-03-15T02:19:00.275Z,1.40
2019-03-15T02:21:27.923Z,1.23
2019-03-15T02:23:55.568Z,1.20
2019-03-15T02:26:23.220Z,0.80
2019-03-15T02:28:50.882Z,1.43
2019-03-15T02:31:18.619Z,1.00
2019-03-15T02:33:46.280Z,1.40
2019-03-15T02:36:14.263Z,1.03
2019-03-15T02:38:41.952Z,1.23
2019-03-15T02:41:09.602Z,1.23
2019-03-15T02:43:37.260Z,1.13
2019-03-15T02:46:05.252Z,1.20
2019-03-15T02:48:33.052Z,1.00
2019-03-15T02:51:00.695Z,1.47
2019-03-15T02:53:28.366Z,1.23
2019-03-15T02:55:56.017Z,1.43
2019-03-15T02:58:23.666Z,0.80
2019-03-15T03:00:51.401Z,0.93
2019-03-15T03:03:19.303Z,1.40
2019-03-15T03:05:48.335Z,1.23
2019-03-15T03:08:16.103Z,1.13
2019-03-15T03:10:43.910Z,1.30
2019-03-15T03:13:11.555Z,0.90
2019-03-15T03:15:39.204Z,1.03
2019-03-15T03:18:07.404Z,1.30
2019-03-15T03:20:35.380Z,1.80
2019-03-15T03:23:04.030Z,0.83
2019-03-15T03:25:31.857Z,1.20
2019-03-15T03:28:00.700Z,1.40
2019-03-15T03:30:28.937Z,1.23
2019-03-15T03:32:56.584Z,1.20
2019-03-15T03:35:24.231Z,0.97
2019-03-15T03:37:51.871Z,1.10
2019-03-15T03:40:20.477Z,1.30
2019-03-15T03:42:48.852Z,0.97
2019-03-15T03:45:16.509Z,1.40
2019-03-15T03:47:44.158Z,1.20
2019-03-15T03:50:11.827Z,1.23
2019-03-15T03:52:41.794Z,1.00
2019-03-15T03:55:08.870Z,0.93
2019-03-15T03:57:36.701Z,0.83
2019-03-15T04:00:04.530Z,1.07
2019-03-15T04:02:33.107Z,0.93
2019-03-15T04:05:00.952Z,0.97
2019-03-15T04:07:28.616Z,1.00
2019-03-15T04:09:56.251Z,1.17
2019-03-15T04:12:23.910Z,1.30
2019-03-15T04:14:51.656Z,1.40
2019-03-15T04:17:19.384Z,1.70
2019-03-15T04:19:47.065Z,1.63
2019-03-15T04:22:14.743Z,1.10
2019-03-15T04:24:42.439Z,1.53
2019-03-15T04:27:10.091Z,1.20
2019-03-15T04:29:37.745Z,1.27
2019-03-15T04:32:05.383Z,1.40
2019-03-15T04:34:33.039Z,1.37
2019-03-15T04:37:00.695Z,1.67
2019-03-15T04:39:28.492Z,1.60
2019-03-15T04:41:56.330Z,1.23
2019-03-15T04:44:23.974Z,1.50
2019-03-15T04:46:51.623Z,1.07
2019-03-15T04:49:19.264Z,1.20
2019-03-15T04:51:46.956Z,1.30
2019-03-15T04:54:14.604Z,1.50
2019-03-15T04:56:42.251Z,1.40
2019-03-15T04:59:09.915Z,1.40
2019-03-15T05:01:37.567Z,1.47
2019-03-15T05:04:05.204Z,1.53
2019-03-15T05:06:32.868Z,1.30
2019-03-15T05:09:00.516Z,1.30
2019-03-15T05:11:28.165Z,1.23
2019-03-15T05:13:58.652Z,1.53
2019-03-15T05:16:25.152Z,1.43
2019-03-15T05:18:52.839Z,2.07
2019-03-15T05:21:20.487Z,1.87
2019-03-15T05:23:48.144Z,1.00
2019-03-15T05:26:15.780Z,1.57
2019-03-15T05:28:43.447Z,1.27
2019-03-15T05:31:11.101Z,1.23
2019-03-15T05:33:38.752Z,1.20
2019-03-15T05:36:06.419Z,1.13
2019-03-15T05:38:35.097Z,1.40
2019-03-15T05:41:03.083Z,1.47
2019-03-15T05:43:30.728Z,1.53
2019-03-15T05:45:58.370Z,1.73
2019-03-15T05:48:26.052Z,1.70
2019-03-15T05:50:53.691Z,1.67
2019-03-15T05:53:21.386Z,1.30
2019-03-15T05:55:49.024Z,1.30
2019-03-15T05:58:16.667Z,1.30
2019-03-15T06:00:44.319Z,1.50
2019-03-15T06:03:12.631Z,1.23
2019-03-15T06:05:40.487Z,1.30
2019-03-15T06:08:08.181Z,0.93
2019-03-15T06:10:35.861Z,1.37
2019-03-15T06:55:19.928Z,2.07
2019-03-15T06:57:47.597Z,1.73
2019-03-15T07:00:15.272Z,1.80
2019-03-15T07:02:42.915Z,1.77
2019-03-15T07:05:12.164Z,1.97
2019-03-15T07:07:39.917Z,1.30
2019-03-15T07:10:07.553Z,1.67
2019-03-15T07:12:35.183Z,1.90
2019-03-15T07:15:02.825Z,1.70
2019-03-15T07:17:30.466Z,1.77
2019-03-15T07:19:58.111Z,2.30
2019-03-15T07:22:25.758Z,1.60
2019-03-15T07:24:53.400Z,1.77
2019-03-15T07:27:21.932Z,1.40
2019-03-15T07:29:49.731Z,2.13
2019-03-15T07:32:17.496Z,1.60
2019-03-15T07:34:45.135Z,2.00
2019-03-15T07:37:12.793Z,2.23
2019-03-15T07:39:40.443Z,2.00
2019-03-15T07:42:08.072Z,1.50
2019-03-15T07:44:35.725Z,1.97
2019-03-15T07:47:03.379Z,1.80
2019-03-15T07:49:31.015Z,2.03
2019-03-15T07:51:58.650Z,1.83
2019-03-15T07:54:37.409Z,1.83
2019-03-15T07:56:55.635Z,2.00
2019-03-15T07:59:23.267Z,2.00
2019-03-15T08:01:52.731Z,1.97
2019-03-15T08:04:20.276Z,1.97
2019-03-15T08:06:47.910Z,1.53
2019-03-15T08:09:15.561Z,2.07
2019-03-15T08:11:43.188Z,1.83
2019-03-15T08:14:10.827Z,2.13
2019-03-15T08:16:38.456Z,1.70
2019-03-15T08:19:06.111Z,2.20
2019-03-15T08:21:33.755Z,2.10
2019-03-15T08:24:01.388Z,2.40
2019-03-15T08:26:30.360Z,1.93
2019-03-15T08:28:58.153Z,2.40
2019-03-15T08:31:25.803Z,1.90
2019-03-15T08:33:53.478Z,2.43
2019-03-15T08:36:21.111Z,2.10
2019-03-15T08:38:48.773Z,2.80
2019-03-15T08:41:16.419Z,2.40
2019-03-15T08:43:46.052Z,2.10
2019-03-15T08:46:13.587Z,2.03
2019-03-15T08:48:41.235Z,2.37
2019-03-15T08:51:10.557Z,1.93
2019-03-15T08:53:38.258Z,2.07
2019-03-15T08:56:06.176Z,2.73
2019-03-15T08:58:33.831Z,2.10
2019-03-15T09:01:01.468Z,2.00
2019-03-15T09:03:29.113Z,1.90
2019-03-15T09:05:56.747Z,2.00
2019-03-15T09:08:24.396Z,2.07
2019-03-15T09:10:52.058Z,2.30
2019-03-15T09:13:19.716Z,1.70
2019-03-15T09:15:47.371Z,1.70
2019-03-15T09:18:15.013Z,2.00
2019-03-15T09:20:42.655Z,1.60
2019-03-15T09:23:10.322Z,1.77
2019-03-15T09:25:37.978Z,1.83
2019-03-15T09:28:05.619Z,1.73
2019-03-15T09:30:33.285Z,2.43
2019-03-15T09:33:03.143Z,1.93
2019-03-15T09:35:30.343Z,2.17
2019-03-15T09:37:57.983Z,2.47
2019-03-15T09:40:26.224Z,2.20
2019-03-15T09:42:53.973Z,1.90
2019-03-15T09:45:21.624Z,1.87
2019-03-15T09:47:49.278Z,2.10
2019-03-15T09:50:26.390Z,2.23
2019-03-15T09:52:46.269Z,1.90
2019-03-15T09:55:13.991Z,2.37
2019-03-15T09:57:41.659Z,2.03
2019-03-15T10:00:09.423Z,2.20
2019-03-15T10:02:37.101Z,1.73
2019-03-15T10:05:10.952Z,2.60
2019-03-15T10:07:38.748Z,2.00
2019-03-15T10:10:12.989Z,2.10
2019-03-15T10:12:32.759Z,2.10
2019-03-15T10:15:00.521Z,2.00
2019-03-15T10:17:28.235Z,2.30
2019-03-15T10:19:55.901Z,2.00
2019-03-15T10:22:23.554Z,1.80
2019-03-15T10:24:51.208Z,1.90
2019-03-15T10:27:18.844Z,2.50
2019-03-15T10:29:46.507Z,1.70
2019-03-15T10:32:14.165Z,2.47
2019-03-15T10:34:41.816Z,1.77
2019-03-15T10:37:09.467Z,1.80
2019-03-15T10:39:37.119Z,2.30
2019-03-15T10:42:04.775Z,1.97
2019-03-15T10:44:32.512Z,1.90
2019-03-15T10:47:00.152Z,2.23
2019-03-15T10:49:30.689Z,1.87
2019-03-15T10:51:57.134Z,1.87
2019-03-15T10:54:24.786Z,1.80
2019-03-15T10:56:52.426Z,1.80
2019-03-15T10:59:20.155Z,1.50
2019-03-15T11:01:47.806Z,1.70
2019-03-15T11:04:15.555Z,2.53
2019-03-15T11:06:43.231Z,1.40
2019-03-15T11:09:10.888Z,1.90
2019-03-15T11:11:38.532Z,1.60
2019-03-15T11:14:06.483Z,1.90
2019-03-15T11:16:34.136Z,1.60
2019-03-15T11:19:01.775Z,1.40
2019-03-15T11:21:29.428Z,1.60
2019-03-15T11:23:57.077Z,1.30
2019-03-15T11:26:24.754Z,1.80
2019-03-15T11:28:52.394Z,2.27
2019-03-15T11:31:20.063Z,2.00
2019-03-15T11:33:47.765Z,1.70
2019-03-15T11:36:15.420Z,1.93
2019-03-15T11:38:43.072Z,1.63
2019-03-15T11:41:10.795Z,2.10
2019-03-15T11:43:38.443Z,1.57
2019-03-15T11:46:06.099Z,1.53
2019-03-15T11:48:33.768Z,1.77
2019-03-15T11:51:01.413Z,1.30
2019-03-15T11:53:29.087Z,1.17
2019-03-15T11:55:56.726Z,1.33
2019-03-15T11:58:24.376Z,1.67
2019-03-15T12:00:52.083Z,1.30
2019-03-15T12:03:19.722Z,1.37
2019-03-15T12:05:47.377Z,1.00
2019-03-15T12:08:15.010Z,1.40
2019-03-15T12:10:42.675Z,1.73
2019-03-15T12:13:10.320Z,1.40
2019-03-15T12:15:37.964Z,1.33
2019-03-15T12:18:08.240Z,1.50
2019-03-15T12:20:34.972Z,1.30
2019-03-15T12:23:02.620Z,1.40
2019-03-15T12:25:31.546Z,1.80
2019-03-15T12:27:59.755Z,1.40
2019-03-15T12:30:27.402Z,1.30
2019-03-15T12:32:55.087Z,1.03
2019-03-15T12:35:22.720Z,1.20
2019-03-15T12:37:50.364Z,1.20
2019-03-15T12:40:18.013Z,1.00
2019-03-15T12:42:45.648Z,1.00
2019-03-15T12:45:13.300Z,1.10
2019-03-15T12:47:40.959Z,1.20
2019-03-15T12:50:08.621Z,0.90
2019-03-15T12:52:46.415Z,0.90
2019-03-15T12:55:05.683Z,1.30
2019-03-15T12:57:33.340Z,1.27
2019-03-15T13:00:00.986Z,1.20
2019-03-15T13:02:28.623Z,0.80
2019-03-15T13:04:56.316Z,0.93
2019-03-15T13:07:23.968Z,0.87
2019-03-15T13:09:51.603Z,1.03
2019-03-15T13:12:19.244Z,0.80
2019-03-15T13:14:46.884Z,1.17
2019-03-15T13:17:14.526Z,0.90
2019-03-15T13:19:54.704Z,1.23
2019-03-15T13:22:11.531Z,1.10
2019-03-15T13:24:39.168Z,1.00
2019-03-15T13:27:07.898Z,1.07
2019-03-15T13:29:35.723Z,1.13
2019-03-15T13:32:03.368Z,1.00
2019-03-15T13:34:31.004Z,0.90
2019-03-15T13:36:58.647Z,1.00
2019-03-15T13:39:26.282Z,0.93
2019-03-15T13:41:53.931Z,0.87
2019-03-15T13:44:21.610Z,1.17
2019-03-15T13:46:49.256Z,0.87
2019-03-15T13:49:16.899Z,0.70
2019-03-15T13:51:44.554Z,0.80
2019-03-15T13:54:12.214Z,0.83
2019-03-15T13:56:39.959Z,0.80
2019-03-15T13:59:07.603Z,0.70
2019-03-15T14:01:35.267Z,0.80
2019-03-15T14:04:02.904Z,0.90
2019-03-15T14:06:30.562Z,0.70
2019-03-15T14:08:58.196Z,0.83
2019-03-15T14:11:25.839Z,0.90
2019-03-15T14:13:53.479Z,0.70
2019-03-15T14:16:21.124Z,0.90
2019-03-15T14:18:48.861Z,0.87
2019-03-15T14:21:16.608Z,0.80
2019-03-15T14:23:44.356Z,0.90
2019-03-15T14:26:11.987Z,0.93
2019-03-15T14:28:39.660Z,0.90
2019-03-15T14:31:10.660Z,1.00
2019-03-15T14:33:38.286Z,0.90
2019-03-15T14:36:05.957Z,1.00
2019-03-15T14:38:33.639Z,0.63
2019-03-15T14:41:01.461Z,0.83
2019-03-15T14:43:29.219Z,0.70
2019-03-15T14:45:57.052Z,0.60
2019-03-15T14:48:24.753Z,0.80
2019-03-15T14:50:52.390Z,1.13
2019-03-15T14:53:20.031Z,0.80
2019-03-15T14:55:47.674Z,1.10
2019-03-15T14:58:15.349Z,0.70
2019-03-15T15:00:43.031Z,0.90
2019-03-15T15:03:10.672Z,0.70
2019-03-15T15:05:38.309Z,0.93
2019-03-15T15:08:05.953Z,0.90
2019-03-15T15:10:33.576Z,0.80
2019-03-15T15:13:01.221Z,0.80
2019-03-15T15:15:28.850Z,0.80
2019-03-15T15:17:56.494Z,0.90
2019-03-15T15:20:24.185Z,0.90
2019-03-15T15:22:51.827Z,0.80
2019-03-15T15:25:19.483Z,0.97
2019-03-15T15:27:47.199Z,0.67
2019-03-15T15:30:14.822Z,0.80
2019-03-15T15:32:42.475Z,0.93
2019-03-15T15:35:10.130Z,0.77
2019-03-15T15:37:37.803Z,0.60
2019-03-15T15:40:05.443Z,0.70
2019-03-15T15:42:33.091Z,0.90
2019-03-15T15:45:00.762Z,0.60
2019-03-15T15:47:28.410Z,1.00
2019-03-15T15:49:56.048Z,0.70
2019-03-15T15:52:23.798Z,0.80
2019-03-15T15:54:51.527Z,0.80
2019-03-15T15:57:19.169Z,0.80
2019-03-15T15:59:46.800Z,0.90
2019-03-15T16:02:14.443Z,1.10
2019-03-15T16:04:42.113Z,0.60
2019-03-15T16:07:09.749Z,0.80
2019-03-15T16:09:37.405Z,0.90
2019-03-15T16:12:05.075Z,0.70
2019-03-15T16:14:32.730Z,0.80
2019-03-15T16:17:00.362Z,0.80
2019-03-15T16:19:28.020Z,0.97
2019-03-15T16:21:55.695Z,0.80
2019-03-15T16:24:23.340Z,0.80
2019-03-15T16:26:50.991Z,0.90
2019-03-15T16:29:19.018Z,1.07
2019-03-15T16:31:46.662Z,0.83
2019-03-15T16:34:14.306Z,0.60
2019-03-15T16:36:41.952Z,0.80
2019-03-15T16:39:09.619Z,0.60
2019-03-15T16:41:37.303Z,0.60
2019-03-15T16:44:04.950Z,0.60
2019-03-15T16:46:32.600Z,0.60
2019-03-15T16:49:00.247Z,0.80
2019-03-15T16:51:27.886Z,0.80
2019-03-15T16:53:55.557Z,0.60
2019-03-15T16:56:23.199Z,0.70
2019-03-15T16:58:50.858Z,0.70
2019-03-15T17:01:18.527Z,0.67
2019-03-15T17:03:46.172Z,0.53
2019-03-15T17:06:13.811Z,0.60
2019-03-15T17:08:41.449Z,0.60
2019-03-15T17:11:09.093Z,0.60
2019-03-15T17:13:36.726Z,0.60
2019-03-15T17:16:04.422Z,0.60
2019-03-15T17:18:32.115Z,1.07
2019-03-15T17:20:59.751Z,0.70
2019-03-15T17:23:27.391Z,0.50
2019-03-15T17:25:55.038Z,0.60
2019-03-15T17:28:22.702Z,0.63
2019-03-15T17:30:50.370Z,0.50
2019-03-15T17:33:18.014Z,0.80
2019-03-15T17:35:45.656Z,0.50
2019-03-15T17:38:13.293Z,0.50
2019-03-15T17:40:40.941Z,0.50
2019-03-15T17:43:08.588Z,0.60
2019-03-15T17:45:36.243Z,0.60
2019-03-15T17:48:03.887Z,0.60
2019-03-15T17:50:31.542Z,0.73
2019-03-15T17:52:59.185Z,0.70
2019-03-15T17:55:26.827Z,0.70
2019-03-15T17:57:54.469Z,0.70
2019-03-15T18:00:26.835Z,0.80
2019-03-15T18:02:54.478Z,0.73
2019-03-15T18:05:22.182Z,0.67
2019-03-15T18:07:49.924Z,0.70
2019-03-15T18:10:17.573Z,0.70
2019-03-15T18:12:45.221Z,0.90
2019-03-15T18:15:12.857Z,1.10
2019-03-15T18:17:40.498Z,0.90
2019-03-15T18:20:08.142Z,0.77
2019-03-15T18:22:35.899Z,0.70
2019-03-15T18:25:03.559Z,1.20
2019-03-15T18:27:31.270Z,0.90
2019-03-15T18:29:58.913Z,0.70
2019-03-15T18:32:26.560Z,0.60
2019-03-15T18:34:54.203Z,0.90
2019-03-15T18:37:21.843Z,0.90
2019-03-15T18:39:49.581Z,1.00
2019-03-15T18:42:17.286Z,1.03
2019-03-15T18:44:44.931Z,0.90
2019-03-15T18:47:12.579Z,0.87
2019-03-15T18:49:40.225Z,0.70
2019-03-15T18:52:07.862Z,0.93
2019-03-15T18:54:37.949Z,0.90
2019-03-15T18:57:04.845Z,1.43
2019-03-15T18:59:39.806Z,0.80
2019-03-15T19:02:01.830Z,0.90
2019-03-15T19:04:29.478Z,1.00
2019-03-15T19:06:57.112Z,1.30
2019-03-15T19:09:24.766Z,1.07
2019-03-15T19:11:52.399Z,1.20
2019-03-15T19:14:20.055Z,1.93
2019-03-15T19:16:47.678Z,1.30
2019-03-15T19:19:15.317Z,1.23
2019-03-15T19:21:42.963Z,1.30
2019-03-15T19:24:10.657Z,1.30
2019-03-15T19:26:38.318Z,1.00
2019-03-15T19:29:05.973Z,1.40
2019-03-15T19:31:33.601Z,1.30
2019-03-15T19:34:01.251Z,1.30
2019-03-15T19:36:28.887Z,1.40
2019-03-15T19:38:56.533Z,1.13
2019-03-15T19:41:24.455Z,1.13
2019-03-15T19:43:52.155Z,1.70
2019-03-15T19:46:19.855Z,1.17
2019-03-15T19:48:47.512Z,1.60
2019-03-15T19:51:15.156Z,1.60
2019-03-15T19:53:42.795Z,1.40
2019-03-15T19:56:10.443Z,1.83
2019-03-15T19:58:38.079Z,1.10
2019-03-15T20:01:05.726Z,1.20
2019-03-15T20:03:43.517Z,1.40
2019-03-15T20:06:02.813Z,1.33
2019-03-15T20:08:30.567Z,1.40
2019-03-15T20:10:58.202Z,1.60
2019-03-15T20:13:25.840Z,1.23
2019-03-15T20:15:53.492Z,1.70
2019-03-15T20:18:21.358Z,1.30
2019-03-15T20:20:49.123Z,1.50
2019-03-15T20:23:16.747Z,1.50
2019-03-15T20:25:44.389Z,1.27
2019-03-15T20:28:12.025Z,1.17
2019-03-15T20:30:51.227Z,1.53
2019-03-15T20:33:09.012Z,1.10
2019-03-15T20:35:36.651Z,0.93
2019-03-15T20:38:04.299Z,1.00
2019-03-15T20:40:31.944Z,1.27
2019-03-15T20:42:59.590Z,1.20
2019-03-15T20:45:27.255Z,1.20
2019-03-15T20:47:54.893Z,0.90
2019-03-15T20:50:22.530Z,1.10
2019-03-15T20:52:50.165Z,1.13
2019-03-15T20:55:17.814Z,0.87
2019-03-15T20:57:45.458Z,1.17
2019-03-15T21:00:13.107Z,1.40
2019-03-15T21:02:40.767Z,1.30
2019-03-15T21:05:08.406Z,1.30
2019-03-15T21:07:36.099Z,1.07
2019-03-15T21:10:03.742Z,1.00
2019-03-15T21:12:31.386Z,1.20
2019-03-15T21:14:59.194Z,1.40
2019-03-15T21:17:26.841Z,1.30
2019-03-15T21:19:54.493Z,1.07
2019-03-15T21:22:22.152Z,1.10
2019-03-15T21:24:49.779Z,0.87
2019-03-15T21:27:17.418Z,1.20
2019-03-15T21:29:45.068Z,1.03
2019-03-15T21:32:12.782Z,0.90
2019-03-15T21:34:40.628Z,1.10
2019-03-15T21:37:08.270Z,1.20
2019-03-15T21:39:35.920Z,0.87
2019-03-15T21:42:03.638Z,1.13
2019-03-15T21:44:31.280Z,1.33
2019-03-15T21:46:58.931Z,1.20
2019-03-15T21:49:26.573Z,1.10
2019-03-15T21:51:54.209Z,1.50
2019-03-15T21:54:21.841Z,0.90
2019-03-15T21:56:49.483Z,1.30
2019-03-15T21:59:17.119Z,0.77
2019-03-15T22:01:44.822Z,0.87
2019-03-15T22:04:12.472Z,1.43
2019-03-15T22:06:40.119Z,0.97
2019-03-15T22:09:07.760Z,1.00
2019-03-15T22:11:35.400Z,1.00
2019-03-15T22:14:03.032Z,0.90
2019-03-15T22:16:30.703Z,1.00
2019-03-15T22:18:58.391Z,0.90
2019-03-15T22:21:26.046Z,1.07
2019-03-15T22:23:53.691Z,1.23
2019-03-15T22:26:21.373Z,0.80
2019-03-15T22:28:49.013Z,0.80
2019-03-15T22:31:17.209Z,0.80
2019-03-15T22:33:44.979Z,1.00
2019-03-15T22:36:12.615Z,1.07
2019-03-15T22:38:40.247Z,1.40
2019-03-15T22:41:07.904Z,0.83
2019-03-15T22:43:35.530Z,0.90
2019-03-15T22:46:03.176Z,0.83
2019-03-15T22:48:30.806Z,1.00
2019-03-15T22:50:58.446Z,1.07
2019-03-15T22:53:26.099Z,0.70
2019-03-15T22:55:53.731Z,0.73
2019-03-15T22:58:21.374Z,1.00
2019-03-15T23:00:49.011Z,0.73
2019-03-15T23:03:16.665Z,0.83
2019-03-15T23:05:44.307Z,1.13
2019-03-15T23:08:11.963Z,0.80
2019-03-15T23:10:39.608Z,1.20
2019-03-15T23:13:07.351Z,1.20
2019-03-15T23:15:34.991Z,0.80
2019-03-15T23:18:02.656Z,0.97
2019-03-15T23:20:30.357Z,1.00
2019-03-15T23:22:58.353Z,1.00
2019-03-15T23:25:26.031Z,0.90
2019-03-15T23:27:53.713Z,0.90
2019-03-15T23:30:21.339Z,1.03
2019-03-15T23:32:48.974Z,1.10
2019-03-15T23:35:16.629Z,0.83
2019-03-15T23:37:44.277Z,1.03
2019-03-15T23:40:11.958Z,0.97
2019-03-15T23:42:39.594Z,0.90
2019-03-15T23:45:07.249Z,1.30
2019-03-15T23:47:34.902Z,1.27
2019-03-15T23:50:02.550Z,1.00
2019-03-15T23:52:30.194Z,1.10
2019-03-15T23:54:57.843Z,1.03
2019-03-15T23:57:25.470Z,0.70
2019-03-15T23:59:53.110Z,1.20
